Time;durP1;ratioP1;P1;durP2;ratioP2;P2;SDS_P1;SDS_P2;PMS_P1;PMS_P2;Temp;Humidity;BMP_temperature;BMP_pressure;BME280_temperature;BME280_humidity;BME280_pressure;Samples;Min_cycle;Max_cycle;Signal;HPM_P1;HPM_P2
2022/06/05 00:01:06;;;;;;;5.55;2.80;;;;;;;21.51;72.19;100647.31;18563109;32;20104;-67
2022/06/05 00:11:12;;;;;;;6.53;2.97;;;;;;;21.41;71.94;100644.19;18561914;31;20095;-67
2022/06/05 00:21:15;;;;;;;7.32;3.47;;;;;;;21.79;70.73;100642.59;18561200;32;20077;-67
2022/06/05 00:31:26;;;;;;;5.72;2.87;;;;;;;21.67;70.33;100636.91;18560382;32;20097;-67
2022/06/05 00:41:34;;;;;;;;;;;;;;;21.81;70.47;100614.16;18560241;31;20097;-67
2022/06/05 00:51:38;;;;;;;7.18;3.08;;;;;;;21.95;71.04;100609.06;18559691;32;20007;-67
2022/06/05 01:01:42;;;;;;;8.05;3.17;;;;;;;21.72;71.77;100621.62;18559091;32;20109;-68
2022/06/05 01:12:00;;;;;;;7.22;3.42;;;;;;;21.59;71.59;100617.75;18558580;31;20097;-67
2022/06/05 01:22:53;;;;;;;6.75;2.87;;;;;;;21.69;71.71;100613.78;18557844;32;20107;-67
2022/06/05 01:33:01;;;;;;;7.68;2.90;;;;;;;22.16;69.98;100596.56;18557243;32;20089;-67
2022/06/05 01:43:08;;;;;;;9.50;2.85;;;;;;;22.06;70.51;100597.06;18556514;32;20084;-67
2022/06/05 01:53:18;;;;;;;6.45;2.97;;;;;;;21.31;73.28;100600.41;18555956;32;20106;-67
2022/06/05 02:03:24;;;;;;;7.20;3.03;;;;;;;21.79;71.19;100602.72;18565866;32;20089;-67
2022/06/05 02:13:29;;;;;;;9.68;3.97;;;;;;;21.61;72.12;100602.59;18565208;32;20147;-67
2022/06/05 02:23:34;;;;;;;6.75;3.05;;;;;;;21.61;71.23;100598.16;18564581;32;20097;-67
2022/06/05 02:33:43;;;;;;;6.47;2.97;;;;;;;22.10;69.59;100593.31;18564449;32;20371;-67
2022/06/05 02:44:28;;;;;;;6.35;2.90;;;;;;;22.78;67.51;100583.84;18564141;31;20432;-67
2022/06/05 02:54:21;;;;;;;7.35;3.05;;;;;;;21.48;72.18;100599.63;18563943;32;20084;-67
2022/06/05 03:04:25;;;;;;;7.70;3.20;;;;;;;21.52;71.27;100616.28;18563764;32;20345;-67
2022/06/05 03:14:30;;;;;;;11.00;5.00;;;;;;;22.34;68.71;100623.22;18563161;32;20145;-67
2022/06/05 03:24:33;;;;;;;15.25;7.60;;;;;;;22.39;69.30;100623.84;18563135;32;20092;-67
2022/06/05 03:34:38;;;;;;;16.60;6.70;;;;;;;21.80;71.74;100646.97;18562906;32;20096;-67
2022/06/05 03:44:42;;;;;;;12.32;5.03;;;;;;;21.76;72.77;100648.88;18562359;32;20092;-67
2022/06/05 03:54:47;;;;;;;14.40;6.20;;;;;;;21.39;74.83;100666.44;18562117;32;20097;-67
2022/06/05 04:04:50;;;;;;;15.65;6.70;;;;;;;21.55;74.65;100670.16;18560218;32;20104;-67
2022/06/05 04:14:55;;;;;;;17.85;7.75;;;;;;;22.48;70.92;100685.50;18561634;32;20092;-67
2022/06/05 04:24:59;;;;;;;17.90;7.90;;;;;;;22.19;72.21;100688.59;18559995;32;20171;-67
2022/06/05 04:35:04;;;;;;;13.02;6.00;;;;;;;21.69;74.92;100700.59;18555776;32;145111;-67
2022/06/05 04:45:09;;;;;;;13.82;6.40;;;;;;;21.72;74.20;100721.72;18560032;32;20148;-67
2022/06/05 04:55:13;;;;;;;14.05;5.70;;;;;;;21.46;75.29;100719.22;18559484;32;20183;-67
2022/06/05 05:05:17;;;;;;;13.23;5.68;;;;;;;21.86;73.73;100739.69;18558961;32;20092;-67
2022/06/05 05:15:22;;;;;;;14.90;6.03;;;;;;;22.04;73.23;100751.28;18558408;31;20106;-67
2022/06/05 05:25:25;;;;;;;14.85;6.18;;;;;;;21.91;74.40;100753.66;18557718;32;20141;-67
2022/06/05 05:35:30;;;;;;;16.12;6.85;;;;;;;22.49;72.77;100754.63;18564261;32;20376;-67
2022/06/05 05:45:33;;;;;;;16.48;7.43;;;;;;;22.81;71.51;100770.84;18565954;32;20660;-67
2022/06/05 05:55:38;;;;;;;14.55;6.75;;;;;;;22.71;71.24;100762.44;18565778;32;20115;-67
2022/06/05 06:05:41;;;;;;;10.75;4.95;;;;;;;23.72;67.44;100754.00;18565385;32;20112;-67
2022/06/05 06:15:46;;;;;;;12.23;4.68;;;;;;;23.70;65.70;100746.06;18565045;31;20100;-68
2022/06/05 06:25:56;;;;;;;8.50;4.25;;;;;;;24.58;63.20;100749.47;18564669;32;20088;-67
2022/06/05 06:36:02;;;;;;;8.88;4.62;;;;;;;23.72;60.14;100756.66;18564123;31;20104;-67
2022/06/05 06:46:06;;;;;;;8.82;4.62;;;;;;;23.71;60.60;100757.59;18563635;32;20091;-67
2022/06/05 06:56:14;;;;;;;7.40;3.72;;;;;;;24.37;57.48;100744.38;18563961;32;20499;-68
2022/06/05 07:06:17;;;;;;;9.15;4.00;;;;;;;24.52;58.15;100732.00;18563606;32;20084;-68
2022/06/05 07:16:22;;;;;;;6.43;3.40;;;;;;;25.59;53.43;100725.88;18563318;32;20100;-67
2022/06/05 07:26:27;;;;;;;7.20;3.30;;;;;;;25.14;54.70;100719.66;18563261;32;20096;-68
2022/06/05 07:36:32;;;;;;;8.05;3.22;;;;;;;26.37;51.23;100713.12;18562573;32;20143;-67
2022/06/05 07:46:36;;;;;;;9.15;3.90;;;;;;;25.81;50.47;100729.06;18562563;32;20096;-67
2022/06/05 07:56:42;;;;;;;5.05;2.60;;;;;;;25.89;49.73;100743.72;18560773;32;20141;-67
2022/06/05 08:06:45;;;;;;;4.65;2.60;;;;;;;26.40;49.91;100749.53;18561672;32;20092;-67
2022/06/05 08:16:50;;;;;;;6.87;3.12;;;;;;;27.79;45.58;100752.94;18562475;31;20088;-67
2022/06/05 08:26:53;;;;;;;8.27;3.53;;;;;;;27.18;46.29;100748.09;18561010;32;20072;-67
2022/06/05 08:47:23;;;;;;;8.43;3.45;;;;;;;26.07;49.98;100756.88;18560262;32;20116;-67
2022/06/05 08:57:31;;;;;;;6.37;3.03;;;;;;;27.48;46.16;100746.97;18558470;32;20149;-67
2022/06/05 09:07:41;;;;;;;6.18;3.35;;;;;;;26.99;48.09;100745.78;18563235;32;20076;-68
2022/06/05 09:17:56;;;;;;;7.43;3.58;;;;;;;28.26;44.94;100741.63;18567111;32;20445;-68
2022/06/05 09:28:19;;;;;;;7.18;3.35;;;;;;;27.70;45.27;100732.97;18566548;32;20164;-68
2022/06/05 09:38:27;;;;;;;7.25;3.70;;;;;;;27.24;47.53;100736.09;18566107;32;20096;-67
2022/06/05 09:48:40;;;;;;;7.07;3.67;;;;;;;27.14;46.67;100746.59;18565977;32;20088;-68
2022/06/05 09:59:01;;;;;;;5.95;2.90;;;;;;;26.23;51.22;100756.81;18565571;32;20110;-68
2022/06/05 10:09:09;;;;;;;7.00;3.10;;;;;;;26.55;46.72;100767.28;18565017;32;20088;-68
2022/06/05 10:19:29;;;;;;;6.75;2.87;;;;;;;27.53;46.13;100768.09;18564571;32;20100;-68
2022/06/05 10:29:34;;;;;;;5.63;2.87;;;;;;;27.53;44.95;100768.09;18564630;32;20084;-68
2022/06/05 10:39:48;;;;;;;5.65;2.83;;;;;;;27.03;45.40;100765.16;18564016;32;20133;-68
2022/06/05 10:50:04;;;;;;;6.07;2.75;;;;;;;28.08;44.34;100767.94;18564381;32;20088;-69
2022/06/05 11:00:18;;;;;;;6.55;3.33;;;;;;;28.51;40.61;100755.97;18563866;32;20111;-69
2022/06/05 11:20:59;;;;;;;2.55;1.55;;;;;;;29.16;36.33;100732.41;18562983;32;20096;-68
2022/06/05 11:31:13;;;;;;;4.57;2.28;;;;;;;28.62;37.24;100707.72;18561213;32;20113;-67
2022/06/05 11:41:23;;;;;;;4.30;2.15;;;;;;;29.69;36.17;100704.22;18562447;32;20085;-67
2022/06/05 11:51:30;;;;;;;5.82;2.37;;;;;;;29.48;38.08;100678.00;18562221;32;20084;-68
2022/06/05 12:01:43;;;;;;;4.25;2.10;;;;;;;28.85;37.60;100675.62;18561928;32;20092;-68
2022/06/05 12:11:52;;;;;;;25.60;18.73;;;;;;;29.85;35.95;100662.62;18561677;32;20146;-67
2022/06/05 12:22:03;;;;;;;3.67;2.10;;;;;;;30.62;36.63;100654.66;18562887;32;20097;-67
2022/06/05 12:32:08;;;;;;;3.60;2.03;;;;;;;30.89;34.16;100632.69;18560536;32;20107;-67
2022/06/05 12:42:20;;;;;;;5.78;2.62;;;;;;;30.59;34.79;100623.44;18559408;32;20111;-67
2022/06/05 12:52:29;;;;;;;5.25;2.67;;;;;;;30.70;36.22;100596.53;18560037;32;20084;-68
2022/06/05 13:02:36;;;;;;;5.28;2.25;;;;;;;30.55;36.65;100590.56;18560520;32;20091;-68
2022/06/05 13:12:43;;;;;;;4.32;2.45;;;;;;;30.23;37.26;100580.63;18558842;32;20098;-67
2022/06/05 13:22:50;;;;;;;5.90;2.35;;;;;;;30.27;34.37;100570.47;18558423;32;20110;-68
2022/06/05 13:33:01;;;;;;;5.03;2.58;;;;;;;30.40;36.04;100560.41;18557832;32;20107;-68
2022/06/05 13:43:06;;;;;;;5.57;2.40;;;;;;;31.58;32.40;100549.44;18556627;32;20118;-68
2022/06/05 13:53:16;;;;;;;4.03;2.40;;;;;;;30.99;33.15;100554.56;18560360;32;20115;-68
2022/06/05 14:03:36;;;;;;;4.15;2.17;;;;;;;31.44;32.66;100533.66;18565510;32;20437;-68
2022/06/05 14:13:43;;;;;;;5.70;2.40;;;;;;;30.72;32.89;100526.31;18563812;32;20092;-67
2022/06/05 14:23:49;;;;;;;4.97;2.35;;;;;;;29.85;34.12;100517.34;18564813;32;20088;-68
2022/06/05 14:33:54;;;;;;;5.00;2.40;;;;;;;30.22;33.71;100508.94;18563354;32;20111;-68
2022/06/05 14:44:01;;;;;;;4.47;2.30;;;;;;;30.87;33.23;100489.97;18564134;32;20108;-68
2022/06/05 14:54:16;;;;;;;5.32;2.50;;;;;;;28.96;37.84;100485.91;18564031;32;20380;-68
2022/06/05 15:04:25;;;;;;;5.87;2.62;;;;;;;29.95;33.76;100469.84;18563077;32;20089;-67
2022/06/05 15:14:35;;;;;;;6.10;2.80;;;;;;;29.35;33.92;100456.78;18563630;32;20176;-67
2022/06/05 15:24:44;;;;;;;3.78;2.37;;;;;;;30.54;33.89;100447.94;18561771;32;20100;-68
2022/06/05 15:35:16;;;;;;;5.15;2.60;;;;;;;29.89;32.43;100455.09;18563193;32;20107;-67
2022/06/05 15:45:40;;;;;;;4.27;2.50;;;;;;;29.80;35.33;100446.94;18562477;32;20088;-67
2022/06/05 15:55:49;;;;;;;6.05;3.03;;;;;;;29.84;36.14;100437.63;18562355;32;20163;-68
2022/06/05 16:05:56;;;;;;;6.15;3.10;;;;;;;29.72;34.47;100431.41;18562268;32;20088;-67
2022/06/05 16:16:03;;;;;;;5.37;3.15;;;;;;;29.31;36.45;100440.06;18560704;32;20107;-67
2022/06/05 16:26:14;;;;;;;6.15;2.83;;;;;;;29.57;34.19;100417.41;18561414;32;20069;-67
2022/06/05 16:46:48;;;;;;;6.43;3.23;;;;;;;28.83;36.47;100422.38;18560406;32;20088;-67
2022/06/05 16:57:20;;;;;;;7.15;3.60;;;;;;;29.16;35.37;100425.16;18560870;32;20216;-68
2022/06/05 17:07:27;;;;;;;5.90;2.67;;;;;;;29.26;35.40;100428.81;18559054;32;20092;-67
2022/06/05 17:17:36;;;;;;;6.22;3.30;;;;;;;28.93;34.75;100422.50;18558480;32;20137;-67
2022/06/05 17:27:46;;;;;;;5.50;3.20;;;;;;;28.41;36.75;100430.13;18561144;31;20149;-67
2022/06/05 17:38:07;;;;;;;8.47;3.93;;;;;;;28.12;36.82;100426.84;18566222;31;20462;-67
2022/06/05 17:48:22;;;;;;;5.53;2.78;;;;;;;28.59;35.90;100434.06;18565862;32;20110;-67
2022/06/05 17:58:28;;;;;;;6.72;3.00;;;;;;;28.18;36.31;100419.31;18565505;31;20174;-67
2022/06/05 18:08:35;;;;;;;7.20;3.40;;;;;;;27.77;37.75;100414.25;18565425;32;20093;-67
2022/06/05 18:18:41;;;;;;;7.65;3.72;;;;;;;27.11;42.01;100415.44;18565193;32;20157;-67
2022/06/05 18:28:48;;;;;;;10.18;4.12;;;;;;;26.52;43.29;100413.31;18564725;32;20117;-67
2022/06/05 18:38:56;;;;;;;10.05;3.90;;;;;;;25.99;46.66;100422.19;18563946;31;20455;-67
2022/06/05 18:49:01;;;;;;;9.02;4.78;;;;;;;25.43;49.38;100426.66;18564308;32;20436;-67
2022/06/05 18:59:04;;;;;;;10.07;4.78;;;;;;;24.74;51.90;100435.34;18563758;32;20120;-67
2022/06/05 19:09:15;;;;;;;10.88;4.30;;;;;;;24.59;51.68;100442.50;18564596;32;20441;-67
2022/06/05 19:19:21;;;;;;;10.02;5.03;;;;;;;23.81;55.50;100462.12;18563350;32;20412;-67
2022/06/05 19:29:27;;;;;;;12.80;5.65;;;;;;;23.40;55.71;100458.19;18561597;32;20140;-67
2022/06/05 19:39:44;;;;;;;13.38;5.15;;;;;;;23.43;55.89;100471.31;18562702;31;20111;-67
2022/06/05 19:49:51;;;;;;;13.30;5.97;;;;;;;22.95;58.11;100513.78;18562270;32;20448;-66
2022/06/05 20:00:29;;;;;;;10.07;5.45;;;;;;;22.41;59.78;100512.06;18562208;32;20477;-66
2022/06/05 20:10:44;;;;;;;10.90;5.03;;;;;;;22.01;60.52;100526.41;18563103;32;20092;-66
2022/06/05 20:20:50;;;;;;;10.07;5.57;;;;;;;21.74;61.28;100533.88;18559916;32;20088;-66
2022/06/05 20:30:58;;;;;;;11.93;5.43;;;;;;;21.94;60.80;100534.72;18561158;32;20138;-66
2022/06/05 20:41:02;;;;;;;9.95;5.28;;;;;;;21.82;61.46;100545.00;18559191;32;20145;-66
2022/06/05 20:51:11;;;;;;;9.35;5.15;;;;;;;22.15;60.24;100541.69;18558503;32;20119;-66
2022/06/05 21:01:18;;;;;;;9.30;4.78;;;;;;;22.41;57.64;100514.72;18558807;32;20088;-67
2022/06/05 21:21:43;;;;;;;7.85;3.97;;;;;;;23.52;47.64;100480.59;18558549;32;20476;-67
2022/06/05 21:31:53;;;;;;;7.87;3.80;;;;;;;23.42;48.28;100482.94;18556278;32;20103;-67
2022/06/05 21:41:59;;;;;;;7.93;4.18;;;;;;;23.74;45.45;100476.75;18557256;32;20428;-67
2022/06/05 21:52:05;;;;;;;7.93;3.72;;;;;;;22.73;48.73;100493.63;18556756;32;20424;-67
2022/06/05 22:02:09;;;;;;;7.87;3.62;;;;;;;22.58;48.42;100537.84;18556250;32;20088;-66
2022/06/05 22:12:14;;;;;;;7.72;3.50;;;;;;;22.63;48.83;100522.53;18557155;32;20178;-67
2022/06/05 22:22:18;;;;;;;6.68;3.35;;;;;;;22.67;46.75;100539.16;18565254;31;20084;-67
2022/06/05 22:32:22;;;;;;;7.35;3.70;;;;;;;22.15;48.72;100546.13;18564723;32;20388;-66
2022/06/05 22:42:26;;;;;;;8.35;3.25;;;;;;;22.20;46.55;100552.09;18564323;32;20092;-67
2022/06/05 22:52:30;;;;;;;5.62;2.62;;;;;;;22.86;43.84;100539.97;18564346;32;20483;-66
2022/06/05 23:02:34;;;;;;;5.37;2.47;;;;;;;22.77;42.22;100523.59;18563899;32;20154;-66
2022/06/05 23:12:39;;;;;;;5.90;2.67;;;;;;;22.92;41.36;100522.81;18563439;32;20107;-66
2022/06/05 23:22:43;;;;;;;5.43;2.60;;;;;;;21.85;46.97;100520.09;18562985;31;20100;-67
2022/06/05 23:32:48;;;;;;;5.97;2.62;;;;;;;21.38;46.96;100535.47;18562978;32;20103;-66
2022/06/05 23:42:51;;;;;;;6.65;3.20;;;;;;;21.59;46.90;100499.09;18563819;32;20122;-66
2022/06/05 23:52:56;;;;;;;4.95;2.70;;;;;;;21.03;49.26;100495.44;18562290;31;20169;-66
